createdAt,value
2023-04-20T00:01:24.829Z,7.17
2023-04-20T00:03:51.901Z,6.23
2023-04-20T00:06:18.859Z,5.73
2023-04-20T00:08:45.522Z,5.60
2023-04-20T00:11:12.168Z,7.43
2023-04-20T00:13:38.829Z,6.30
2023-04-20T00:16:06.036Z,6.70
2023-04-20T00:18:32.690Z,6.50
2023-04-20T00:20:59.673Z,8.50
2023-04-20T00:23:26.318Z,8.40
2023-04-20T00:25:52.945Z,7.20
2023-04-20T00:28:19.570Z,5.93
2023-04-20T00:30:46.368Z,6.10
2023-04-20T00:33:13.019Z,8.93
2023-04-20T00:35:39.660Z,9.20
2023-04-20T00:38:06.306Z,8.30
2023-04-20T00:40:33.490Z,9.07
2023-04-20T00:43:12.599Z,6.63
2023-04-20T00:45:39.424Z,6.00
2023-04-20T00:48:06.574Z,7.97
2023-04-20T00:50:34.483Z,5.90
2023-04-20T00:53:02.956Z,7.20
2023-04-20T00:55:30.639Z,6.27
2023-04-20T00:57:58.191Z,6.07
2023-04-20T01:00:26.048Z,6.87
2023-04-20T01:02:52.903Z,5.93
2023-04-20T01:05:21.043Z,6.47
2023-04-20T01:07:47.635Z,7.00
2023-04-20T01:10:14.349Z,7.87
2023-04-20T01:12:41.046Z,6.17
2023-04-20T01:15:08.768Z,9.17
2023-04-20T01:17:39.713Z,5.87
2023-04-20T01:20:14.870Z,5.73
2023-04-20T01:22:54.220Z,7.23
2023-04-20T01:25:21.443Z,6.17
2023-04-20T01:27:48.577Z,4.43
2023-04-20T01:30:17.069Z,5.03
2023-04-20T01:32:44.486Z,5.87
2023-04-20T01:35:11.281Z,5.63
2023-04-20T01:37:39.400Z,7.40
2023-04-20T01:40:08.676Z,5.80
2023-04-20T01:42:35.542Z,7.37
2023-04-20T01:45:02.341Z,5.00
2023-04-20T01:47:31.666Z,5.20
2023-04-20T01:49:58.402Z,5.10
2023-04-20T01:52:25.216Z,5.63
2023-04-20T01:54:52.061Z,5.70
2023-04-20T01:57:18.681Z,6.20
2023-04-20T01:59:45.429Z,9.10
2023-04-20T02:02:12.069Z,7.20
2023-04-20T02:04:38.743Z,8.03
2023-04-20T02:07:05.472Z,6.67
2023-04-20T02:09:32.141Z,7.23
2023-04-20T02:11:58.723Z,7.77
2023-04-20T02:14:25.301Z,5.73
2023-04-20T02:16:53.361Z,6.40
2023-04-20T02:19:20.118Z,5.57
2023-04-20T02:21:46.734Z,5.53
2023-04-20T02:24:13.350Z,5.20
2023-04-20T02:26:39.999Z,5.10
2023-04-20T02:29:06.823Z,7.43
2023-04-20T02:31:34.326Z,6.93
2023-04-20T02:34:01.026Z,7.50
2023-04-20T02:36:28.153Z,6.57
2023-04-20T02:38:54.760Z,5.00
2023-04-20T02:41:21.375Z,6.37
2023-04-20T02:43:47.993Z,5.30
2023-04-20T02:46:14.998Z,8.73
2023-04-20T02:48:41.796Z,8.87
2023-04-20T02:51:08.967Z,6.47
2023-04-20T02:53:35.803Z,6.60
2023-04-20T02:56:02.550Z,8.83
2023-04-20T02:58:29.194Z,6.47
2023-04-20T03:01:00.478Z,5.50
2023-04-20T03:03:28.612Z,5.77
2023-04-20T03:05:56.769Z,6.10
2023-04-20T03:08:23.555Z,8.90
2023-04-20T03:10:50.178Z,7.70
2023-04-20T03:13:16.806Z,5.20
2023-04-20T03:15:44.188Z,6.63
2023-04-20T03:18:10.888Z,5.50
2023-04-20T03:20:37.561Z,6.37
2023-04-20T03:23:04.168Z,5.93
2023-04-20T03:25:30.990Z,7.30
2023-04-20T03:27:57.716Z,5.03
2023-04-20T03:30:24.347Z,5.20
2023-04-20T03:32:51.035Z,3.87
2023-04-20T03:35:17.888Z,4.93
2023-04-20T03:37:44.597Z,5.40
2023-04-20T03:40:11.761Z,5.87
2023-04-20T03:42:38.392Z,5.03
2023-04-20T03:45:06.603Z,5.33
2023-04-20T03:47:33.408Z,4.87
2023-04-20T03:50:00.041Z,7.10
2023-04-20T03:52:26.723Z,5.83
2023-04-20T03:54:53.354Z,4.80
2023-04-20T03:57:20.074Z,5.27
2023-04-20T03:59:46.704Z,6.13
2023-04-20T04:02:13.508Z,6.23
2023-04-20T04:04:41.301Z,5.00
2023-04-20T04:07:08.149Z,4.80
2023-04-20T04:09:34.795Z,7.03
2023-04-20T04:12:01.403Z,6.60
2023-04-20T04:14:30.054Z,6.40
2023-04-20T04:16:56.757Z,6.43
2023-04-20T04:19:23.413Z,6.03
2023-04-20T04:21:50.047Z,6.77
2023-04-20T04:24:17.440Z,8.17
2023-04-20T04:26:44.353Z,5.30
2023-04-20T04:29:11.313Z,4.90
2023-04-20T04:31:37.977Z,5.17
2023-04-20T04:34:04.650Z,5.47
2023-04-20T04:36:32.064Z,8.10
2023-04-20T04:38:59.110Z,5.03
2023-04-20T04:41:25.780Z,5.57
2023-04-20T04:43:53.400Z,6.00
2023-04-20T04:46:21.055Z,6.33
2023-04-20T04:48:47.680Z,6.63
2023-04-20T04:51:14.298Z,5.50
2023-04-20T04:53:44.926Z,8.60
2023-04-20T04:56:11.648Z,6.47
2023-04-20T04:58:38.266Z,5.80
2023-04-20T05:01:05.155Z,6.07
2023-04-20T05:03:32.174Z,5.57
2023-04-20T05:05:58.931Z,5.87
2023-04-20T05:08:25.588Z,8.43
2023-04-20T05:10:52.211Z,7.23
2023-04-20T05:13:18.847Z,7.70
2023-04-20T05:15:45.494Z,9.70
2023-04-20T05:18:12.079Z,10.83
2023-04-20T05:20:38.760Z,7.07
2023-04-20T05:23:05.414Z,8.77
2023-04-20T05:25:32.772Z,7.37
2023-04-20T05:27:59.679Z,7.20
2023-04-20T05:30:26.456Z,6.60
2023-04-20T05:32:53.115Z,9.83
2023-04-20T05:35:20.443Z,7.77
2023-04-20T05:37:47.822Z,7.63
2023-04-20T05:40:15.421Z,7.60
2023-04-20T05:42:42.115Z,8.73
2023-04-20T05:45:09.436Z,7.93
2023-04-20T05:47:36.184Z,8.97
2023-04-20T05:50:02.817Z,8.73
2023-04-20T05:52:29.450Z,8.33
2023-04-20T05:54:56.308Z,8.00
2023-04-20T05:57:24.387Z,9.23
2023-04-20T05:59:51.288Z,8.47
2023-04-20T06:02:17.986Z,7.70
2023-04-20T06:04:44.923Z,7.53
2023-04-20T06:07:11.658Z,7.57
2023-04-20T06:09:38.340Z,6.93
2023-04-20T06:12:05.356Z,7.20
2023-04-20T06:14:31.969Z,8.63
2023-04-20T06:16:59.381Z,10.03
2023-04-20T06:19:26.284Z,7.13
2023-04-20T06:21:52.955Z,8.63
2023-04-20T06:24:19.619Z,8.37
2023-04-20T06:26:46.193Z,8.37
2023-04-20T06:29:12.839Z,7.63
2023-04-20T06:31:39.451Z,8.30
2023-04-20T06:34:06.105Z,7.60
2023-04-20T06:36:32.814Z,7.27
2023-04-20T06:38:59.475Z,7.00
2023-04-20T06:41:26.124Z,7.20
2023-04-20T06:43:52.767Z,9.50
2023-04-20T06:46:19.520Z,6.43
2023-04-20T06:48:46.299Z,7.13
2023-04-20T06:51:14.145Z,7.13
2023-04-20T06:53:40.855Z,9.17
2023-04-20T06:56:07.958Z,6.07
2023-04-20T06:58:34.638Z,7.53
2023-04-20T07:01:02.382Z,6.80
2023-04-20T07:03:29.468Z,7.63
2023-04-20T07:05:56.206Z,6.90
2023-04-20T07:08:23.196Z,8.63
2023-04-20T07:10:49.895Z,6.93
2023-04-20T07:13:16.669Z,9.57
2023-04-20T07:15:45.348Z,8.23
2023-04-20T07:18:12.306Z,6.83
2023-04-20T07:20:39.031Z,7.03
2023-04-20T07:23:05.752Z,6.87
2023-04-20T07:25:32.904Z,6.63
2023-04-20T07:27:59.666Z,5.97
2023-04-20T07:30:26.478Z,6.33
2023-04-20T07:32:53.191Z,6.87
2023-04-20T07:35:19.902Z,6.30
2023-04-20T07:37:47.401Z,6.00
2023-04-20T07:40:14.361Z,6.17
2023-04-20T07:42:41.248Z,5.87
2023-04-20T07:45:09.174Z,6.67
2023-04-20T07:47:36.716Z,6.00
2023-04-20T07:50:05.106Z,8.03
2023-04-20T07:52:31.894Z,6.50
2023-04-20T07:54:59.486Z,6.27
2023-04-20T07:57:26.983Z,6.60
2023-04-20T07:59:53.621Z,5.80
2023-04-20T08:02:20.760Z,9.30
2023-04-20T08:04:49.057Z,7.17
2023-04-20T08:07:15.924Z,6.70
2023-04-20T08:09:42.603Z,6.87
2023-04-20T08:12:09.312Z,6.83
2023-04-20T08:14:35.908Z,5.77
2023-04-20T08:17:02.535Z,6.90
2023-04-20T08:19:29.175Z,6.43
2023-04-20T08:21:56.037Z,5.73
2023-04-20T08:24:22.712Z,6.77
2023-04-20T08:26:49.535Z,6.43
2023-04-20T08:29:16.300Z,6.50
2023-04-20T08:31:43.170Z,9.63
2023-04-20T08:34:09.938Z,7.20
2023-04-20T08:36:36.689Z,5.30
2023-04-20T08:39:12.048Z,6.63
2023-04-20T08:41:38.773Z,5.60
2023-04-20T08:44:05.737Z,17.13
2023-04-20T08:46:34.102Z,6.30
2023-04-20T08:49:03.408Z,6.60
2023-04-20T08:51:32.350Z,6.57
2023-04-20T08:54:05.581Z,7.67
2023-04-20T08:56:36.147Z,6.10
2023-04-20T08:59:04.436Z,5.60
2023-04-20T09:01:35.595Z,6.07
2023-04-20T09:04:14.806Z,5.93
2023-04-20T09:06:44.658Z,10.33
2023-04-20T09:09:11.609Z,6.17
2023-04-20T09:11:38.228Z,10.07
2023-04-20T09:14:16.489Z,7.13
2023-04-20T09:17:04.996Z,7.77
2023-04-20T09:19:32.202Z,6.27
2023-04-20T09:22:06.483Z,6.80
2023-04-20T09:24:35.547Z,6.63
2023-04-20T09:27:16.870Z,6.47
2023-04-20T09:29:44.145Z,6.27
2023-04-20T09:32:27.965Z,6.53
2023-04-20T09:34:54.983Z,6.17
2023-04-20T09:37:22.762Z,7.60
2023-04-20T09:39:50.175Z,7.33
2023-04-20T09:42:17.341Z,6.47
2023-04-20T09:44:44.317Z,5.93
2023-04-20T09:47:18.880Z,5.57
2023-04-20T09:49:50.966Z,5.97
2023-04-20T09:52:18.959Z,9.23
2023-04-20T09:54:46.241Z,6.00
2023-04-20T09:57:14.163Z,7.73
2023-04-20T09:59:44.092Z,7.27
2023-04-20T10:02:12.538Z,6.73
2023-04-20T10:04:59.733Z,5.63
2023-04-20T10:07:31.903Z,7.10
2023-04-20T10:10:13.079Z,8.33
2023-04-20T10:12:56.934Z,7.20
2023-04-20T10:15:24.935Z,11.53
2023-04-20T10:17:51.708Z,8.07
2023-04-20T10:20:24.054Z,7.23
2023-04-20T10:22:55.118Z,11.07
2023-04-20T10:25:24.384Z,7.77
2023-04-20T10:28:00.130Z,7.23
2023-04-20T10:30:28.260Z,9.13
2023-04-20T10:33:08.441Z,7.63
2023-04-20T10:36:01.605Z,7.47
2023-04-20T10:38:29.177Z,7.00
2023-04-20T10:40:56.017Z,7.07
2023-04-20T10:43:23.032Z,8.83
2023-04-20T10:45:50.914Z,9.03
2023-04-20T10:48:18.407Z,8.73
2023-04-20T10:50:45.942Z,9.50
2023-04-20T10:53:23.624Z,7.53
2023-04-20T10:56:00.164Z,8.37
2023-04-20T10:58:27.271Z,8.13
2023-04-20T11:01:03.909Z,6.13
2023-04-20T11:03:32.203Z,7.13
2023-04-20T11:06:03.420Z,6.13
2023-04-20T11:08:56.637Z,7.17
2023-04-20T11:11:27.304Z,5.73
2023-04-20T11:14:09.203Z,7.30
2023-04-20T11:16:48.590Z,6.53
2023-04-20T11:19:24.308Z,8.07
2023-04-20T11:21:50.966Z,6.20
2023-04-20T11:24:26.689Z,6.07
2023-04-20T11:26:54.379Z,7.07
2023-04-20T11:29:35.273Z,6.20
2023-04-20T11:32:07.359Z,6.80
2023-04-20T11:34:35.308Z,6.10
2023-04-20T11:37:06.440Z,6.20
2023-04-20T11:39:33.852Z,5.83
2023-04-20T11:42:01.725Z,6.03
2023-04-20T11:44:28.474Z,5.70
2023-04-20T11:46:57.506Z,6.37
2023-04-20T11:49:26.118Z,5.50
2023-04-20T11:51:53.071Z,5.27
2023-04-20T11:54:19.757Z,8.17
2023-04-20T11:56:46.685Z,6.13
2023-04-20T11:59:19.944Z,5.63
2023-04-20T12:01:47.612Z,9.03
2023-04-20T12:04:15.032Z,7.10
2023-04-20T12:06:42.404Z,4.97
2023-04-20T12:09:09.358Z,6.03
2023-04-20T12:11:36.095Z,5.13
2023-04-20T12:14:02.803Z,5.37
2023-04-20T12:16:29.456Z,5.47
2023-04-20T12:18:56.370Z,5.00
2023-04-20T12:21:22.975Z,5.70
2023-04-20T12:23:52.841Z,5.33
2023-04-20T12:26:19.531Z,5.00
2023-04-20T12:28:46.190Z,4.47
2023-04-20T12:31:12.941Z,5.87
2023-04-20T12:33:39.643Z,4.57
2023-04-20T12:36:06.407Z,5.27
2023-04-20T12:38:34.151Z,4.97
2023-04-20T12:41:00.786Z,5.43
2023-04-20T12:43:28.491Z,5.80
2023-04-20T12:45:55.094Z,6.33
2023-04-20T12:48:21.916Z,5.80
2023-04-20T12:50:48.735Z,5.07
2023-04-20T12:53:15.376Z,6.87
2023-04-20T12:55:42.082Z,5.23
2023-04-20T12:58:08.684Z,7.53
2023-04-20T13:00:35.355Z,5.30
2023-04-20T13:03:02.235Z,5.83
2023-04-20T13:05:29.271Z,5.87
2023-04-20T13:07:56.022Z,6.20
2023-04-20T13:10:22.754Z,6.20
2023-04-20T13:12:51.606Z,9.23
2023-04-20T13:15:31.902Z,6.87
2023-04-20T13:18:05.917Z,5.40
2023-04-20T13:20:32.780Z,5.77
2023-04-20T13:23:01.596Z,6.03
2023-04-20T13:25:29.966Z,6.97
2023-04-20T13:27:56.987Z,5.80
2023-04-20T13:30:24.752Z,7.00
2023-04-20T13:32:51.920Z,6.83
2023-04-20T13:35:18.933Z,5.70
2023-04-20T13:37:46.086Z,5.47
2023-04-20T13:40:13.220Z,6.30
2023-04-20T13:42:39.856Z,5.97
2023-04-20T13:45:07.226Z,6.63
2023-04-20T13:47:34.035Z,5.80
2023-04-20T13:50:02.506Z,6.77
2023-04-20T13:52:29.796Z,6.73
2023-04-20T13:54:56.960Z,7.57
2023-04-20T13:57:24.103Z,7.37
2023-04-20T13:59:52.484Z,6.67
2023-04-20T14:02:19.485Z,7.93
2023-04-20T14:04:46.514Z,7.70
2023-04-20T14:07:13.401Z,7.07
2023-04-20T14:09:40.328Z,7.90
2023-04-20T14:12:07.529Z,8.60
2023-04-20T14:14:34.178Z,9.70
2023-04-20T14:17:01.818Z,8.57
2023-04-20T14:19:28.541Z,8.43
2023-04-20T14:21:55.224Z,7.33
2023-04-20T14:24:21.846Z,6.93
2023-04-20T14:26:50.803Z,6.93
2023-04-20T14:29:17.892Z,9.90
2023-04-20T14:31:44.585Z,8.27
2023-04-20T14:34:13.057Z,7.37
2023-04-20T14:36:39.756Z,7.80
2023-04-20T14:39:06.525Z,7.43
2023-04-20T14:41:34.051Z,7.67
2023-04-20T14:44:00.810Z,7.53
2023-04-20T14:46:27.857Z,7.60
2023-04-20T14:48:54.639Z,8.43
2023-04-20T14:51:21.395Z,9.37
2023-04-20T14:53:48.047Z,9.20
2023-04-20T14:56:14.671Z,7.70
2023-04-20T14:58:42.270Z,8.37
2023-04-20T15:01:08.935Z,9.20
2023-04-20T15:03:36.341Z,8.40
2023-04-20T15:06:03.531Z,11.47
2023-04-20T15:08:30.505Z,8.73
2023-04-20T15:10:57.261Z,7.87
2023-04-20T15:13:24.566Z,7.70
2023-04-20T15:15:54.234Z,8.13
2023-04-20T15:18:21.789Z,8.10
2023-04-20T15:20:50.390Z,8.97
2023-04-20T15:23:17.139Z,9.63
2023-04-20T15:25:43.918Z,8.10
2023-04-20T15:28:11.137Z,7.97
2023-04-20T15:30:37.965Z,8.57
2023-04-20T15:33:05.582Z,10.53
2023-04-20T15:35:33.250Z,9.23
2023-04-20T15:37:59.972Z,9.07
2023-04-20T15:40:27.342Z,8.63
2023-04-20T15:42:57.457Z,9.33
2023-04-20T15:45:25.342Z,7.57
2023-04-20T15:47:52.132Z,9.00
2023-04-20T15:50:18.965Z,10.17
2023-04-20T15:52:49.365Z,9.63
2023-04-20T15:55:16.513Z,7.83
2023-04-20T15:57:44.493Z,10.10
2023-04-20T16:00:12.209Z,8.63
2023-04-20T16:02:40.035Z,9.57
2023-04-20T16:05:07.680Z,9.73
2023-04-20T16:07:34.393Z,8.10
2023-04-20T16:10:02.094Z,7.70
2023-04-20T16:12:29.218Z,8.37
2023-04-20T16:14:57.065Z,9.03
2023-04-20T16:17:23.756Z,8.53
2023-04-20T16:19:50.428Z,8.77
2023-04-20T16:22:17.138Z,10.03
2023-04-20T16:24:43.807Z,10.80
2023-04-20T16:27:10.801Z,8.67
2023-04-20T16:29:37.481Z,10.80
2023-04-20T16:32:04.473Z,9.67
2023-04-20T16:34:31.529Z,8.23
2023-04-20T16:36:58.509Z,10.10
2023-04-20T16:39:25.277Z,10.53
2023-04-20T16:41:52.001Z,11.20
2023-04-20T16:44:18.907Z,9.37
2023-04-20T16:46:50.042Z,10.53
2023-04-20T16:49:17.037Z,9.93
2023-04-20T16:51:43.807Z,9.03
2023-04-20T16:54:11.456Z,9.47
2023-04-20T16:56:38.579Z,9.40
2023-04-20T16:59:05.589Z,9.43
2023-04-20T17:01:32.554Z,8.80
2023-04-20T17:03:59.806Z,9.73
2023-04-20T17:06:27.378Z,11.50
2023-04-20T17:08:58.800Z,11.30
2023-04-20T17:11:26.140Z,9.37
2023-04-20T17:13:52.781Z,9.70
2023-04-20T17:16:20.195Z,8.67
2023-04-20T17:18:46.876Z,10.00
2023-04-20T17:21:13.522Z,10.50
2023-04-20T17:23:41.166Z,8.70
2023-04-20T17:26:08.046Z,9.90
2023-04-20T17:28:34.772Z,12.97
2023-04-20T17:31:01.398Z,8.87
2023-04-20T17:33:28.179Z,10.93
2023-04-20T17:35:56.908Z,11.17
2023-04-20T17:38:24.181Z,10.63
2023-04-20T17:40:50.900Z,10.77
2023-04-20T17:43:17.582Z,10.47
2023-04-20T17:45:44.662Z,12.50
2023-04-20T17:48:11.316Z,10.80
2023-04-20T17:50:37.976Z,10.43
2023-04-20T17:53:06.868Z,10.73
2023-04-20T17:55:34.677Z,13.53
2023-04-20T17:58:01.469Z,14.00
2023-04-20T18:00:28.199Z,12.23
2023-04-20T18:02:55.969Z,13.17
2023-04-20T18:05:22.755Z,12.10
2023-04-20T18:07:49.400Z,10.03
2023-04-20T18:10:16.276Z,11.10
2023-04-20T18:12:43.488Z,10.93
2023-04-20T18:15:10.706Z,13.03
2023-04-20T18:17:37.552Z,10.83
2023-04-20T18:20:05.805Z,11.53
2023-04-20T18:22:33.047Z,13.17
2023-04-20T18:24:59.698Z,10.50
2023-04-20T18:27:26.329Z,12.53
2023-04-20T18:29:53.594Z,13.97
2023-04-20T18:32:20.992Z,15.43
2023-04-20T18:34:47.708Z,13.70
2023-04-20T18:37:14.853Z,11.90
2023-04-20T18:39:41.628Z,13.50
2023-04-20T18:42:08.436Z,11.23
2023-04-20T18:44:35.091Z,11.40
2023-04-20T18:47:02.057Z,12.17
2023-04-20T18:49:30.129Z,13.07
2023-04-20T18:51:56.735Z,14.03
2023-04-20T18:54:23.353Z,12.97
2023-04-20T18:56:50.358Z,12.80
2023-04-20T18:59:17.088Z,12.20
2023-04-20T19:01:43.914Z,13.73
2023-04-20T19:04:10.797Z,11.93
2023-04-20T19:06:37.592Z,13.30
2023-04-20T19:09:06.550Z,15.90
2023-04-20T19:11:34.651Z,13.20
2023-04-20T19:14:01.361Z,14.03
2023-04-20T19:16:31.162Z,11.10
2023-04-20T19:18:58.442Z,12.47
2023-04-20T19:21:25.465Z,12.87
2023-04-20T19:23:52.242Z,11.67
2023-04-20T19:26:19.013Z,11.13
2023-04-20T19:28:48.637Z,12.33
2023-04-20T19:31:15.960Z,14.33
2023-04-20T19:33:42.765Z,12.10
2023-04-20T19:36:10.018Z,14.17
2023-04-20T19:38:38.350Z,13.63
2023-04-20T19:41:06.213Z,12.40
2023-04-20T19:43:32.981Z,12.77
2023-04-20T19:45:59.723Z,14.07
2023-04-20T19:48:26.728Z,13.50
2023-04-20T19:50:56.186Z,13.67
2023-04-20T19:53:23.153Z,12.80
2023-04-20T19:55:50.047Z,15.20
2023-04-20T19:58:16.765Z,12.47
2023-04-20T20:00:43.404Z,14.50
2023-04-20T20:03:12.064Z,13.23
2023-04-20T20:05:38.909Z,13.17
2023-04-20T20:08:05.568Z,14.83
2023-04-20T20:10:32.539Z,14.13
2023-04-20T20:12:59.245Z,16.50
2023-04-20T20:15:25.916Z,14.83
2023-04-20T20:17:55.338Z,15.07
2023-04-20T20:20:22.728Z,16.93
2023-04-20T20:22:50.315Z,15.43
2023-04-20T20:25:20.146Z,20.43
2023-04-20T20:27:46.774Z,15.77
2023-04-20T20:30:15.126Z,13.93
2023-04-20T20:32:41.955Z,19.00
2023-04-20T20:35:11.479Z,16.47
2023-04-20T20:37:38.734Z,17.43
2023-04-20T20:40:07.116Z,16.03
2023-04-20T20:42:34.075Z,18.13
2023-04-20T20:45:01.233Z,15.70
2023-04-20T20:47:27.921Z,22.30
2023-04-20T20:49:54.621Z,13.83
2023-04-20T20:52:22.052Z,13.63
2023-04-20T20:54:48.765Z,19.27
2023-04-20T20:57:15.406Z,15.33
2023-04-20T20:59:42.095Z,18.27
2023-04-20T21:02:08.797Z,13.43
2023-04-20T21:04:38.968Z,15.10
2023-04-20T21:07:05.753Z,15.43
2023-04-20T21:09:33.103Z,20.10
2023-04-20T21:12:00.694Z,18.50
2023-04-20T21:14:27.311Z,18.87
2023-04-20T21:16:54.026Z,20.93
2023-04-20T21:19:20.947Z,19.13
2023-04-20T21:21:47.881Z,20.43
2023-04-20T21:24:14.538Z,20.40
2023-04-20T21:26:41.216Z,18.10
2023-04-20T21:29:08.345Z,19.07
2023-04-20T21:31:35.621Z,19.07
2023-04-20T21:34:02.843Z,18.43
2023-04-20T21:36:30.176Z,22.40
2023-04-20T21:38:57.350Z,19.07
2023-04-20T21:41:26.853Z,15.47
2023-04-20T21:43:53.971Z,17.67
2023-04-20T21:46:21.415Z,22.50
2023-04-20T21:48:48.544Z,19.17
2023-04-20T21:51:16.662Z,20.50
2023-04-20T21:53:45.669Z,20.57
2023-04-20T21:56:15.047Z,21.50
2023-04-20T21:58:42.224Z,19.40
2023-04-20T22:01:09.590Z,18.73
